sensor_id;sensor_type;location;lat;lon;timestamp;temperature;humidity
67555;HTU21D;54385;53.516;49.456;2022-10-16T00:02:17;4.52;75.37
67555;HTU21D;54385;53.516;49.456;2022-10-16T00:04:49;4.51;75.48
67555;HTU21D;54385;53.516;49.456;2022-10-16T00:07:21;4.47;75.67
67555;HTU21D;54385;53.516;49.456;2022-10-16T00:09:52;4.44;75.98
67555;HTU21D;54385;53.516;49.456;2022-10-16T00:12:24;4.39;76.19
67555;HTU21D;54385;53.516;49.456;2022-10-16T00:14:56;4.37;76.56
67555;HTU21D;54385;53.516;49.456;2022-10-16T00:17:29;4.29;76.43
67555;HTU21D;54385;53.516;49.456;2022-10-16T00:20:01;4.27;76.53
67555;HTU21D;54385;53.516;49.456;2022-10-16T00:22:34;4.22;76.57
67555;HTU21D;54385;53.516;49.456;2022-10-16T00:25:05;4.20;76.62
67555;HTU21D;54385;53.516;49.456;2022-10-16T00:27:37;4.20;76.73
67555;HTU21D;54385;53.516;49.456;2022-10-16T00:30:09;4.18;76.76
67555;HTU21D;54385;53.516;49.456;2022-10-16T00:32:41;4.19;76.90
67555;HTU21D;54385;53.516;49.456;2022-10-16T00:35:13;4.16;77.23
67555;HTU21D;54385;53.516;49.456;2022-10-16T00:37:44;4.18;77.07
67555;HTU21D;54385;53.516;49.456;2022-10-16T00:40:16;4.17;77.34
67555;HTU21D;54385;53.516;49.456;2022-10-16T00:42:48;4.16;77.39
67555;HTU21D;54385;53.516;49.456;2022-10-16T00:45:20;4.13;77.67
67555;HTU21D;54385;53.516;49.456;2022-10-16T00:47:54;4.13;77.50
67555;HTU21D;54385;53.516;49.456;2022-10-16T00:53:01;4.05;77.61
67555;HTU21D;54385;53.516;49.456;2022-10-16T00:55:34;4.07;77.90
67555;HTU21D;54385;53.516;49.456;2022-10-16T00:58:06;4.07;77.82
67555;HTU21D;54385;53.516;49.456;2022-10-16T01:00:38;4.05;77.84
67555;HTU21D;54385;53.516;49.456;2022-10-16T01:03:25;4.03;77.96
67555;HTU21D;54385;53.516;49.456;2022-10-16T01:15:47;3.84;78.46
67555;HTU21D;54385;53.516;49.456;2022-10-16T01:18:16;3.79;78.53
67555;HTU21D;54385;53.516;49.456;2022-10-16T01:21:01;3.77;78.51
67555;HTU21D;54385;53.516;49.456;2022-10-16T01:23:51;3.74;78.77
67555;HTU21D;54385;53.516;49.456;2022-10-16T01:29:09;3.59;79.06
67555;HTU21D;54385;53.516;49.456;2022-10-16T01:31:49;3.60;79.14
67555;HTU21D;54385;53.516;49.456;2022-10-16T01:34:31;3.60;79.15
67555;HTU21D;54385;53.516;49.456;2022-10-16T01:37:11;3.59;79.10
67555;HTU21D;54385;53.516;49.456;2022-10-16T01:39:46;3.57;79.07
67555;HTU21D;54385;53.516;49.456;2022-10-16T01:42:25;3.56;79.06
67555;HTU21D;54385;53.516;49.456;2022-10-16T01:44:59;3.52;79.13
67555;HTU21D;54385;53.516;49.456;2022-10-16T01:47:33;3.43;79.22
67555;HTU21D;54385;53.516;49.456;2022-10-16T01:50:08;3.42;79.34
67555;HTU21D;54385;53.516;49.456;2022-10-16T01:52:43;3.38;79.43
67555;HTU21D;54385;53.516;49.456;2022-10-16T01:55:22;3.38;79.33
67555;HTU21D;54385;53.516;49.456;2022-10-16T01:57:56;3.43;79.31
67555;HTU21D;54385;53.516;49.456;2022-10-16T02:00:29;3.40;79.09
67555;HTU21D;54385;53.516;49.456;2022-10-16T02:03:02;3.38;79.17
67555;HTU21D;54385;53.516;49.456;2022-10-16T02:05:54;3.38;79.23
67555;HTU21D;54385;53.516;49.456;2022-10-16T02:08:28;3.40;79.13
67555;HTU21D;54385;53.516;49.456;2022-10-16T02:11:01;3.44;79.21
67555;HTU21D;54385;53.516;49.456;2022-10-16T02:13:38;3.44;79.12
67555;HTU21D;54385;53.516;49.456;2022-10-16T02:16:12;3.34;79.02
67555;HTU21D;54385;53.516;49.456;2022-10-16T02:18:45;3.28;79.20
67555;HTU21D;54385;53.516;49.456;2022-10-16T02:21:29;3.21;79.37
67555;HTU21D;54385;53.516;49.456;2022-10-16T02:26:52;3.24;79.41
67555;HTU21D;54385;53.516;49.456;2022-10-16T02:29:26;3.25;79.43
67555;HTU21D;54385;53.516;49.456;2022-10-16T02:32:03;3.15;79.38
67555;HTU21D;54385;53.516;49.456;2022-10-16T02:34:36;3.05;79.66
67555;HTU21D;54385;53.516;49.456;2022-10-16T02:37:08;3.04;79.93
67555;HTU21D;54385;53.516;49.456;2022-10-16T02:39:41;3.08;79.77
67555;HTU21D;54385;53.516;49.456;2022-10-16T02:42:14;3.10;79.53
67555;HTU21D;54385;53.516;49.456;2022-10-16T02:44:46;3.11;79.36
67555;HTU21D;54385;53.516;49.456;2022-10-16T02:47:18;3.06;79.36
67555;HTU21D;54385;53.516;49.456;2022-10-16T02:49:50;2.96;79.39
67555;HTU21D;54385;53.516;49.456;2022-10-16T02:52:21;2.93;79.62
67555;HTU21D;54385;53.516;49.456;2022-10-16T02:54:54;2.93;79.91
67555;HTU21D;54385;53.516;49.456;2022-10-16T02:57:25;2.94;79.85
67555;HTU21D;54385;53.516;49.456;2022-10-16T02:59:57;2.94;79.63
67555;HTU21D;54385;53.516;49.456;2022-10-16T03:02:29;2.89;79.53
67555;HTU21D;54385;53.516;49.456;2022-10-16T03:05:01;2.84;79.56
67555;HTU21D;54385;53.516;49.456;2022-10-16T03:07:33;2.88;79.59
67555;HTU21D;54385;53.516;49.456;2022-10-16T03:10:05;2.84;79.61
67555;HTU21D;54385;53.516;49.456;2022-10-16T03:12:37;2.82;79.62
67555;HTU21D;54385;53.516;49.456;2022-10-16T03:15:09;2.78;79.69
67555;HTU21D;54385;53.516;49.456;2022-10-16T03:17:41;2.79;79.69
67555;HTU21D;54385;53.516;49.456;2022-10-16T03:20:13;2.78;79.60
67555;HTU21D;54385;53.516;49.456;2022-10-16T03:22:45;2.82;79.44
67555;HTU21D;54385;53.516;49.456;2022-10-16T03:25:17;2.87;79.17
67555;HTU21D;54385;53.516;49.456;2022-10-16T03:27:48;2.83;79.26
67555;HTU21D;54385;53.516;49.456;2022-10-16T03:30:20;2.81;79.14
67555;HTU21D;54385;53.516;49.456;2022-10-16T03:32:52;2.80;79.29
67555;HTU21D;54385;53.516;49.456;2022-10-16T03:35:27;2.86;79.14
67555;HTU21D;54385;53.516;49.456;2022-10-16T03:37:58;2.93;78.93
67555;HTU21D;54385;53.516;49.456;2022-10-16T03:40:30;2.96;78.53
67555;HTU21D;54385;53.516;49.456;2022-10-16T03:43:03;2.95;78.31
67555;HTU21D;54385;53.516;49.456;2022-10-16T03:45:35;2.93;78.67
67555;HTU21D;54385;53.516;49.456;2022-10-16T03:48:07;2.97;78.49
67555;HTU21D;54385;53.516;49.456;2022-10-16T03:50:38;2.99;78.42
67555;HTU21D;54385;53.516;49.456;2022-10-16T03:53:10;3.02;78.47
67555;HTU21D;54385;53.516;49.456;2022-10-16T03:55:43;2.98;78.35
67555;HTU21D;54385;53.516;49.456;2022-10-16T03:58:15;2.87;78.75
67555;HTU21D;54385;53.516;49.456;2022-10-16T04:00:47;2.83;79.26
67555;HTU21D;54385;53.516;49.456;2022-10-16T04:03:19;2.89;79.37
67555;HTU21D;54385;53.516;49.456;2022-10-16T04:05:52;3.02;78.92
67555;HTU21D;54385;53.516;49.456;2022-10-16T04:08:24;3.09;78.82
67555;HTU21D;54385;53.516;49.456;2022-10-16T04:10:56;3.13;78.77
67555;HTU21D;54385;53.516;49.456;2022-10-16T04:13:28;3.17;78.78
67555;HTU21D;54385;53.516;49.456;2022-10-16T04:16:00;3.26;78.64
67555;HTU21D;54385;53.516;49.456;2022-10-16T04:18:31;3.32;78.55
67555;HTU21D;54385;53.516;49.456;2022-10-16T04:21:07;3.42;78.38
67555;HTU21D;54385;53.516;49.456;2022-10-16T04:23:39;3.54;78.15
67555;HTU21D;54385;53.516;49.456;2022-10-16T04:26:10;3.63;77.72
67555;HTU21D;54385;53.516;49.456;2022-10-16T04:28:42;3.74;77.49
67555;HTU21D;54385;53.516;49.456;2022-10-16T04:31:14;3.79;77.24
67555;HTU21D;54385;53.516;49.456;2022-10-16T04:33:46;3.90;77.08
67555;HTU21D;54385;53.516;49.456;2022-10-16T04:36:18;3.97;77.04
67555;HTU21D;54385;53.516;49.456;2022-10-16T04:38:50;4.02;77.22
67555;HTU21D;54385;53.516;49.456;2022-10-16T04:41:21;4.10;76.86
67555;HTU21D;54385;53.516;49.456;2022-10-16T04:43:53;4.27;76.41
67555;HTU21D;54385;53.516;49.456;2022-10-16T04:46:25;4.43;76.29
67555;HTU21D;54385;53.516;49.456;2022-10-16T04:48:57;4.60;75.92
67555;HTU21D;54385;53.516;49.456;2022-10-16T04:51:29;4.81;76.41
67555;HTU21D;54385;53.516;49.456;2022-10-16T04:54:01;4.93;76.49
67555;HTU21D;54385;53.516;49.456;2022-10-16T04:56:33;5.11;76.32
67555;HTU21D;54385;53.516;49.456;2022-10-16T04:59:11;5.35;75.78
67555;HTU21D;54385;53.516;49.456;2022-10-16T05:01:43;5.37;75.89
67555;HTU21D;54385;53.516;49.456;2022-10-16T05:04:15;5.50;75.63
67555;HTU21D;54385;53.516;49.456;2022-10-16T05:06:47;5.52;75.74
67555;HTU21D;54385;53.516;49.456;2022-10-16T05:09:19;5.60;75.70
67555;HTU21D;54385;53.516;49.456;2022-10-16T05:11:51;5.65;74.51
67555;HTU21D;54385;53.516;49.456;2022-10-16T05:14:23;5.70;74.92
67555;HTU21D;54385;53.516;49.456;2022-10-16T05:16:55;5.82;74.04
67555;HTU21D;54385;53.516;49.456;2022-10-16T05:19:27;6.01;73.54
67555;HTU21D;54385;53.516;49.456;2022-10-16T05:21:58;6.11;72.52
67555;HTU21D;54385;53.516;49.456;2022-10-16T05:24:30;6.30;71.90
67555;HTU21D;54385;53.516;49.456;2022-10-16T05:27:02;6.40;71.52
67555;HTU21D;54385;53.516;49.456;2022-10-16T05:29:34;6.58;71.00
67555;HTU21D;54385;53.516;49.456;2022-10-16T05:32:06;6.55;70.86
67555;HTU21D;54385;53.516;49.456;2022-10-16T05:34:38;6.59;71.19
67555;HTU21D;54385;53.516;49.456;2022-10-16T05:37:10;6.70;70.13
67555;HTU21D;54385;53.516;49.456;2022-10-16T05:39:42;6.79;69.84
67555;HTU21D;54385;53.516;49.456;2022-10-16T05:42:14;6.96;69.22
67555;HTU21D;54385;53.516;49.456;2022-10-16T05:44:46;7.08;69.29
67555;HTU21D;54385;53.516;49.456;2022-10-16T05:47:18;7.13;68.84
67555;HTU21D;54385;53.516;49.456;2022-10-16T05:49:52;7.17;68.26
67555;HTU21D;54385;53.516;49.456;2022-10-16T05:52:24;7.18;67.64
67555;HTU21D;54385;53.516;49.456;2022-10-16T05:54:56;7.20;67.37
67555;HTU21D;54385;53.516;49.456;2022-10-16T05:57:28;7.23;67.17
67555;HTU21D;54385;53.516;49.456;2022-10-16T06:00:01;7.17;67.03
67555;HTU21D;54385;53.516;49.456;2022-10-16T06:02:33;7.26;67.20
67555;HTU21D;54385;53.516;49.456;2022-10-16T06:05:05;7.31;66.73
67555;HTU21D;54385;53.516;49.456;2022-10-16T06:07:37;7.32;66.82
67555;HTU21D;54385;53.516;49.456;2022-10-16T06:10:08;7.32;66.72
67555;HTU21D;54385;53.516;49.456;2022-10-16T06:12:40;7.29;66.99
67555;HTU21D;54385;53.516;49.456;2022-10-16T06:15:12;7.25;66.58
67555;HTU21D;54385;53.516;49.456;2022-10-16T06:17:44;7.37;65.92
67555;HTU21D;54385;53.516;49.456;2022-10-16T06:20:16;7.34;66.30
67555;HTU21D;54385;53.516;49.456;2022-10-16T06:22:47;7.45;66.57
67555;HTU21D;54385;53.516;49.456;2022-10-16T06:25:19;7.65;65.97
67555;HTU21D;54385;53.516;49.456;2022-10-16T06:27:51;7.76;64.89
67555;HTU21D;54385;53.516;49.456;2022-10-16T06:30:23;7.98;64.80
67555;HTU21D;54385;53.516;49.456;2022-10-16T06:32:55;8.02;64.63
67555;HTU21D;54385;53.516;49.456;2022-10-16T06:35:27;8.12;64.31
67555;HTU21D;54385;53.516;49.456;2022-10-16T06:38:00;8.09;62.71
67555;HTU21D;54385;53.516;49.456;2022-10-16T06:40:32;8.03;62.83
67555;HTU21D;54385;53.516;49.456;2022-10-16T06:43:04;7.99;62.92
67555;HTU21D;54385;53.516;49.456;2022-10-16T06:45:36;8.08;63.35
67555;HTU21D;54385;53.516;49.456;2022-10-16T06:48:07;8.13;62.70
67555;HTU21D;54385;53.516;49.456;2022-10-16T06:50:39;8.18;62.26
67555;HTU21D;54385;53.516;49.456;2022-10-16T06:53:11;8.19;61.92
67555;HTU21D;54385;53.516;49.456;2022-10-16T06:55:43;8.30;61.13
67555;HTU21D;54385;53.516;49.456;2022-10-16T06:58:14;8.33;59.15
67555;HTU21D;54385;53.516;49.456;2022-10-16T07:00:46;8.34;60.69
67555;HTU21D;54385;53.516;49.456;2022-10-16T07:03:18;8.43;60.35
67555;HTU21D;54385;53.516;49.456;2022-10-16T07:05:50;8.56;60.75
67555;HTU21D;54385;53.516;49.456;2022-10-16T07:08:22;8.60;60.15
67555;HTU21D;54385;53.516;49.456;2022-10-16T07:11:05;8.62;59.83
67555;HTU21D;54385;53.516;49.456;2022-10-16T07:13:39;8.51;58.99
67555;HTU21D;54385;53.516;49.456;2022-10-16T07:16:13;8.53;59.50
67555;HTU21D;54385;53.516;49.456;2022-10-16T07:18:45;8.56;58.43
67555;HTU21D;54385;53.516;49.456;2022-10-16T07:21:19;8.68;59.01
67555;HTU21D;54385;53.516;49.456;2022-10-16T07:23:58;8.78;59.09
67555;HTU21D;54385;53.516;49.456;2022-10-16T07:26:34;9.06;58.74
67555;HTU21D;54385;53.516;49.456;2022-10-16T07:29:20;9.24;57.78
67555;HTU21D;54385;53.516;49.456;2022-10-16T07:31:52;9.19;56.42
67555;HTU21D;54385;53.516;49.456;2022-10-16T07:34:23;9.21;55.71
67555;HTU21D;54385;53.516;49.456;2022-10-16T07:36:55;9.33;55.23
67555;HTU21D;54385;53.516;49.456;2022-10-16T07:39:27;9.24;52.72
67555;HTU21D;54385;53.516;49.456;2022-10-16T07:41:59;9.20;53.07
67555;HTU21D;54385;53.516;49.456;2022-10-16T07:44:30;9.21;52.77
67555;HTU21D;54385;53.516;49.456;2022-10-16T07:47:02;9.29;53.33
67555;HTU21D;54385;53.516;49.456;2022-10-16T07:49:34;9.41;52.58
67555;HTU21D;54385;53.516;49.456;2022-10-16T07:52:06;9.41;54.05
67555;HTU21D;54385;53.516;49.456;2022-10-16T07:54:37;9.46;52.65
67555;HTU21D;54385;53.516;49.456;2022-10-16T07:57:09;9.39;53.56
67555;HTU21D;54385;53.516;49.456;2022-10-16T07:59:41;9.37;52.56
67555;HTU21D;54385;53.516;49.456;2022-10-16T08:02:13;9.39;52.85
67555;HTU21D;54385;53.516;49.456;2022-10-16T08:04:46;9.47;51.73
67555;HTU21D;54385;53.516;49.456;2022-10-16T08:07:18;9.56;51.59
67555;HTU21D;54385;53.516;49.456;2022-10-16T08:09:50;9.54;51.89
67555;HTU21D;54385;53.516;49.456;2022-10-16T08:12:23;9.57;51.95
67555;HTU21D;54385;53.516;49.456;2022-10-16T08:14:54;9.62;51.21
67555;HTU21D;54385;53.516;49.456;2022-10-16T08:17:26;9.64;52.01
67555;HTU21D;54385;53.516;49.456;2022-10-16T08:19:58;9.64;52.27
67555;HTU21D;54385;53.516;49.456;2022-10-16T08:22:30;9.69;52.41
67555;HTU21D;54385;53.516;49.456;2022-10-16T08:25:01;9.79;52.23
67555;HTU21D;54385;53.516;49.456;2022-10-16T08:27:33;9.82;51.88
67555;HTU21D;54385;53.516;49.456;2022-10-16T08:30:05;9.92;52.16
67555;HTU21D;54385;53.516;49.456;2022-10-16T08:32:37;10.00;50.82
67555;HTU21D;54385;53.516;49.456;2022-10-16T08:35:10;10.05;50.34
67555;HTU21D;54385;53.516;49.456;2022-10-16T08:37:42;10.08;48.89
67555;HTU21D;54385;53.516;49.456;2022-10-16T08:40:24;10.07;47.61
67555;HTU21D;54385;53.516;49.456;2022-10-16T08:45:52;10.06;50.08
67555;HTU21D;54385;53.516;49.456;2022-10-16T08:51:19;10.12;50.56
67555;HTU21D;54385;53.516;49.456;2022-10-16T08:54:06;10.29;49.85
67555;HTU21D;54385;53.516;49.456;2022-10-16T08:56:40;10.41;49.31
67555;HTU21D;54385;53.516;49.456;2022-10-16T08:59:11;10.65;49.76
67555;HTU21D;54385;53.516;49.456;2022-10-16T09:01:47;10.83;48.39
67555;HTU21D;54385;53.516;49.456;2022-10-16T09:10:31;10.45;48.09
67555;HTU21D;54385;53.516;49.456;2022-10-16T09:13:26;10.59;47.64
67555;HTU21D;54385;53.516;49.456;2022-10-16T09:21:43;10.92;46.83
67555;HTU21D;54385;53.516;49.456;2022-10-16T09:24:17;10.81;47.25
67555;HTU21D;54385;53.516;49.456;2022-10-16T09:26:50;10.80;47.84
67555;HTU21D;54385;53.516;49.456;2022-10-16T09:29:24;10.90;48.08
67555;HTU21D;54385;53.516;49.456;2022-10-16T09:32:15;10.92;47.44
67555;HTU21D;54385;53.516;49.456;2022-10-16T09:34:51;11.01;48.02
67555;HTU21D;54385;53.516;49.456;2022-10-16T09:37:25;11.13;46.37
67555;HTU21D;54385;53.516;49.456;2022-10-16T09:39:57;11.36;46.57
67555;HTU21D;54385;53.516;49.456;2022-10-16T09:42:35;11.29;46.52
67555;HTU21D;54385;53.516;49.456;2022-10-16T09:45:21;11.39;46.51
67555;HTU21D;54385;53.516;49.456;2022-10-16T09:47:53;11.63;47.03
67555;HTU21D;54385;53.516;49.456;2022-10-16T09:50:27;11.89;45.40
67555;HTU21D;54385;53.516;49.456;2022-10-16T09:53:11;12.05;45.40
67555;HTU21D;54385;53.516;49.456;2022-10-16T09:55:51;12.40;44.74
67555;HTU21D;54385;53.516;49.456;2022-10-16T09:58:23;12.49;46.64
67555;HTU21D;54385;53.516;49.456;2022-10-16T10:00:56;12.44;44.48
67555;HTU21D;54385;53.516;49.456;2022-10-16T10:03:37;12.60;44.27
67555;HTU21D;54385;53.516;49.456;2022-10-16T10:11:38;12.35;44.00
67555;HTU21D;54385;53.516;49.456;2022-10-16T10:17:01;11.93;44.82
67555;HTU21D;54385;53.516;49.456;2022-10-16T10:19:44;11.81;44.45
67555;HTU21D;54385;53.516;49.456;2022-10-16T10:22:29;11.58;45.66
67555;HTU21D;54385;53.516;49.456;2022-10-16T10:30:51;11.31;46.39
67555;HTU21D;54385;53.516;49.456;2022-10-16T10:39:08;11.59;45.34
67555;HTU21D;54385;53.516;49.456;2022-10-16T10:41:58;11.89;43.85
67555;HTU21D;54385;53.516;49.456;2022-10-16T10:59:06;12.30;43.00
67555;HTU21D;54385;53.516;49.456;2022-10-16T11:01:54;12.44;43.22
67555;HTU21D;54385;53.516;49.456;2022-10-16T11:04:37;12.53;42.40
67555;HTU21D;54385;53.516;49.456;2022-10-16T11:07:21;12.92;42.36
67555;HTU21D;54385;53.516;49.456;2022-10-16T11:10:13;12.96;41.28
67555;HTU21D;54385;53.516;49.456;2022-10-16T11:12:51;12.78;41.55
67555;HTU21D;54385;53.516;49.456;2022-10-16T11:15:32;12.63;41.71
67555;HTU21D;54385;53.516;49.456;2022-10-16T11:18:15;12.76;41.82
67555;HTU21D;54385;53.516;49.456;2022-10-16T11:20:52;13.29;40.80
67555;HTU21D;54385;53.516;49.456;2022-10-16T11:26:30;14.50;39.10
67555;HTU21D;54385;53.516;49.456;2022-10-16T11:29:10;14.63;38.15
67555;HTU21D;54385;53.516;49.456;2022-10-16T11:31:49;14.50;38.65
67555;HTU21D;54385;53.516;49.456;2022-10-16T11:34:39;14.37;37.93
67555;HTU21D;54385;53.516;49.456;2022-10-16T11:37:53;14.50;37.88
67555;HTU21D;54385;53.516;49.456;2022-10-16T11:40:37;14.57;38.85
67555;HTU21D;54385;53.516;49.456;2022-10-16T11:46:08;14.96;37.47
67555;HTU21D;54385;53.516;49.456;2022-10-16T11:48:48;15.04;37.41
67555;HTU21D;54385;53.516;49.456;2022-10-16T11:54:30;15.33;35.87
67555;HTU21D;54385;53.516;49.456;2022-10-16T11:57:13;14.92;37.21
67555;HTU21D;54385;53.516;49.456;2022-10-16T11:59:53;14.77;37.22
67555;HTU21D;54385;53.516;49.456;2022-10-16T12:02:58;14.71;37.29
67555;HTU21D;54385;53.516;49.456;2022-10-16T12:05:44;14.87;38.31
67555;HTU21D;54385;53.516;49.456;2022-10-16T12:08:22;14.72;38.27
67555;HTU21D;54385;53.516;49.456;2022-10-16T12:11:48;14.33;37.51
67555;HTU21D;54385;53.516;49.456;2022-10-16T12:14:20;13.99;38.48
67555;HTU21D;54385;53.516;49.456;2022-10-16T12:17:52;13.70;39.20
67555;HTU21D;54385;53.516;49.456;2022-10-16T12:25:30;13.27;40.40
67555;HTU21D;54385;53.516;49.456;2022-10-16T12:30:38;13.53;40.66
67555;HTU21D;54385;53.516;49.456;2022-10-16T12:33:20;13.58;40.02
67555;HTU21D;54385;53.516;49.456;2022-10-16T12:35:53;13.35;40.89
67555;HTU21D;54385;53.516;49.456;2022-10-16T12:41:08;12.87;42.34
67555;HTU21D;54385;53.516;49.456;2022-10-16T12:43:46;12.75;42.52
67555;HTU21D;54385;53.516;49.456;2022-10-16T12:48:51;12.81;42.59
67555;HTU21D;54385;53.516;49.456;2022-10-16T12:51:35;12.55;43.43
67555;HTU21D;54385;53.516;49.456;2022-10-16T12:54:17;12.19;43.73
67555;HTU21D;54385;53.516;49.456;2022-10-16T12:56:58;12.13;44.40
67555;HTU21D;54385;53.516;49.456;2022-10-16T12:59:50;11.98;44.61
67555;HTU21D;54385;53.516;49.456;2022-10-16T13:03:11;11.59;46.09
67555;HTU21D;54385;53.516;49.456;2022-10-16T13:11:52;11.01;47.42
67555;HTU21D;54385;53.516;49.456;2022-10-16T13:14:53;10.96;48.02
67555;HTU21D;54385;53.516;49.456;2022-10-16T13:20:46;10.72;47.32
67555;HTU21D;54385;53.516;49.456;2022-10-16T13:23:37;10.55;48.00
67555;HTU21D;54385;53.516;49.456;2022-10-16T13:28:45;10.46;48.94
67555;HTU21D;54385;53.516;49.456;2022-10-16T13:31:22;10.34;49.39
67555;HTU21D;54385;53.516;49.456;2022-10-16T13:33:58;10.20;49.66
67555;HTU21D;54385;53.516;49.456;2022-10-16T13:36:35;10.16;49.98
67555;HTU21D;54385;53.516;49.456;2022-10-16T13:39:25;10.13;50.39
67555;HTU21D;54385;53.516;49.456;2022-10-16T13:42:09;10.05;50.96
67555;HTU21D;54385;53.516;49.456;2022-10-16T13:44:50;10.00;50.79
67555;HTU21D;54385;53.516;49.456;2022-10-16T13:47:28;9.97;51.51
67555;HTU21D;54385;53.516;49.456;2022-10-16T13:50:11;9.90;51.75
67555;HTU21D;54385;53.516;49.456;2022-10-16T13:52:43;9.77;52.52
67555;HTU21D;54385;53.516;49.456;2022-10-16T13:55:18;9.69;52.35
67555;HTU21D;54385;53.516;49.456;2022-10-16T13:57:49;9.62;52.44
67555;HTU21D;54385;53.516;49.456;2022-10-16T14:00:24;9.56;53.08
67555;HTU21D;54385;53.516;49.456;2022-10-16T14:03:05;9.56;53.08
67555;HTU21D;54385;53.516;49.456;2022-10-16T14:05:48;9.50;53.67
67555;HTU21D;54385;53.516;49.456;2022-10-16T14:08:22;9.47;53.97
67555;HTU21D;54385;53.516;49.456;2022-10-16T14:10:57;9.39;54.38
67555;HTU21D;54385;53.516;49.456;2022-10-16T14:13:36;9.36;54.71
67555;HTU21D;54385;53.516;49.456;2022-10-16T14:16:15;9.33;55.21
67555;HTU21D;54385;53.516;49.456;2022-10-16T14:19:02;9.24;55.12
67555;HTU21D;54385;53.516;49.456;2022-10-16T14:21:35;9.19;55.96
67555;HTU21D;54385;53.516;49.456;2022-10-16T14:24:22;9.16;56.44
67555;HTU21D;54385;53.516;49.456;2022-10-16T14:26:56;9.07;57.13
67555;HTU21D;54385;53.516;49.456;2022-10-16T14:29:29;8.94;57.54
67555;HTU21D;54385;53.516;49.456;2022-10-16T14:32:05;8.85;58.00
67555;HTU21D;54385;53.516;49.456;2022-10-16T14:34:38;8.78;58.44
67555;HTU21D;54385;53.516;49.456;2022-10-16T14:37:16;8.67;58.87
67555;HTU21D;54385;53.516;49.456;2022-10-16T14:39:52;8.51;59.47
67555;HTU21D;54385;53.516;49.456;2022-10-16T14:42:25;8.35;60.76
67555;HTU21D;54385;53.516;49.456;2022-10-16T14:44:57;8.21;61.78
67555;HTU21D;54385;53.516;49.456;2022-10-16T14:47:29;8.06;62.40
67555;HTU21D;54385;53.516;49.456;2022-10-16T14:50:02;7.93;62.98
67555;HTU21D;54385;53.516;49.456;2022-10-16T14:52:34;7.89;63.48
67555;HTU21D;54385;53.516;49.456;2022-10-16T14:55:07;7.81;63.98
67555;HTU21D;54385;53.516;49.456;2022-10-16T14:57:39;7.72;64.56
67555;HTU21D;54385;53.516;49.456;2022-10-16T15:00:29;7.57;65.86
67555;HTU21D;54385;53.516;49.456;2022-10-16T15:03:01;7.42;65.24
67555;HTU21D;54385;53.516;49.456;2022-10-16T15:05:33;7.38;66.07
67555;HTU21D;54385;53.516;49.456;2022-10-16T15:08:05;7.34;66.62
67555;HTU21D;54385;53.516;49.456;2022-10-16T15:10:43;7.37;66.62
67555;HTU21D;54385;53.516;49.456;2022-10-16T15:13:16;7.38;66.14
67555;HTU21D;54385;53.516;49.456;2022-10-16T15:15:48;7.33;65.93
67555;HTU21D;54385;53.516;49.456;2022-10-16T15:18:22;7.20;65.67
67555;HTU21D;54385;53.516;49.456;2022-10-16T15:20:54;6.99;65.91
67555;HTU21D;54385;53.516;49.456;2022-10-16T15:23:26;6.91;65.95
67555;HTU21D;54385;53.516;49.456;2022-10-16T15:25:58;6.84;66.19
67555;HTU21D;54385;53.516;49.456;2022-10-16T15:28:31;6.80;66.68
67555;HTU21D;54385;53.516;49.456;2022-10-16T15:31:04;6.74;67.10
67555;HTU21D;54385;53.516;49.456;2022-10-16T15:33:37;6.71;67.04
67555;HTU21D;54385;53.516;49.456;2022-10-16T15:36:09;6.65;67.42
67555;HTU21D;54385;53.516;49.456;2022-10-16T15:38:40;6.55;67.39
67555;HTU21D;54385;53.516;49.456;2022-10-16T15:41:12;6.41;68.10
67555;HTU21D;54385;53.516;49.456;2022-10-16T15:43:44;6.29;68.48
67555;HTU21D;54385;53.516;49.456;2022-10-16T15:46:19;6.23;68.81
67555;HTU21D;54385;53.516;49.456;2022-10-16T15:48:56;6.20;69.04
67555;HTU21D;54385;53.516;49.456;2022-10-16T15:51:29;6.21;69.12
67555;HTU21D;54385;53.516;49.456;2022-10-16T15:54:04;6.15;69.05
67555;HTU21D;54385;53.516;49.456;2022-10-16T15:56:36;6.08;69.51
67555;HTU21D;54385;53.516;49.456;2022-10-16T15:59:08;6.02;69.99
67555;HTU21D;54385;53.516;49.456;2022-10-16T16:01:40;5.96;70.27
67555;HTU21D;54385;53.516;49.456;2022-10-16T16:04:12;5.93;70.45
67555;HTU21D;54385;53.516;49.456;2022-10-16T16:06:43;5.97;70.54
67555;HTU21D;54385;53.516;49.456;2022-10-16T16:09:18;5.96;70.55
67555;HTU21D;54385;53.516;49.456;2022-10-16T16:11:50;5.87;70.24
67555;HTU21D;54385;53.516;49.456;2022-10-16T16:14:23;5.87;70.57
67555;HTU21D;54385;53.516;49.456;2022-10-16T16:16:59;5.87;70.84
67555;HTU21D;54385;53.516;49.456;2022-10-16T16:19:30;5.84;70.77
67555;HTU21D;54385;53.516;49.456;2022-10-16T16:22:03;5.81;70.93
67555;HTU21D;54385;53.516;49.456;2022-10-16T16:24:35;5.80;70.89
67555;HTU21D;54385;53.516;49.456;2022-10-16T16:27:07;5.70;70.95
67555;HTU21D;54385;53.516;49.456;2022-10-16T16:29:39;5.65;71.40
67555;HTU21D;54385;53.516;49.456;2022-10-16T16:32:11;5.70;71.20
67555;HTU21D;54385;53.516;49.456;2022-10-16T16:34:42;5.67;71.13
67555;HTU21D;54385;53.516;49.456;2022-10-16T16:37:14;5.67;71.15
67555;HTU21D;54385;53.516;49.456;2022-10-16T16:39:46;5.63;71.14
67555;HTU21D;54385;53.516;49.456;2022-10-16T16:42:18;5.55;71.09
67555;HTU21D;54385;53.516;49.456;2022-10-16T16:44:50;5.48;71.38
67555;HTU21D;54385;53.516;49.456;2022-10-16T16:47:21;5.42;71.39
67555;HTU21D;54385;53.516;49.456;2022-10-16T16:49:53;5.41;71.29
67555;HTU21D;54385;53.516;49.456;2022-10-16T16:52:25;5.42;71.04
67555;HTU21D;54385;53.516;49.456;2022-10-16T16:54:57;5.40;70.87
67555;HTU21D;54385;53.516;49.456;2022-10-16T16:57:29;5.33;70.94
67555;HTU21D;54385;53.516;49.456;2022-10-16T17:00:00;5.31;70.98
67555;HTU21D;54385;53.516;49.456;2022-10-16T17:02:32;5.25;71.06
67555;HTU21D;54385;53.516;49.456;2022-10-16T17:05:04;5.22;71.00
67555;HTU21D;54385;53.516;49.456;2022-10-16T17:07:36;5.15;71.06
67555;HTU21D;54385;53.516;49.456;2022-10-16T17:10:11;5.02;71.47
67555;HTU21D;54385;53.516;49.456;2022-10-16T17:12:43;4.97;71.73
67555;HTU21D;54385;53.516;49.456;2022-10-16T17:15:15;4.97;71.73
67555;HTU21D;54385;53.516;49.456;2022-10-16T17:17:46;5.01;71.55
67555;HTU21D;54385;53.516;49.456;2022-10-16T17:20:18;4.95;71.37
67555;HTU21D;54385;53.516;49.456;2022-10-16T17:22:50;4.83;71.62
67555;HTU21D;54385;53.516;49.456;2022-10-16T17:25:22;4.72;71.94
67555;HTU21D;54385;53.516;49.456;2022-10-16T17:27:54;4.67;72.36
67555;HTU21D;54385;53.516;49.456;2022-10-16T17:30:26;4.62;72.48
67555;HTU21D;54385;53.516;49.456;2022-10-16T17:32:58;4.69;72.25
67555;HTU21D;54385;53.516;49.456;2022-10-16T17:35:37;4.61;72.29
67555;HTU21D;54385;53.516;49.456;2022-10-16T17:38:11;4.53;72.54
67555;HTU21D;54385;53.516;49.456;2022-10-16T17:40:44;4.49;72.61
67555;HTU21D;54385;53.516;49.456;2022-10-16T17:43:16;4.52;72.66
67555;HTU21D;54385;53.516;49.456;2022-10-16T17:45:48;4.47;72.58